Latest Weather Observations for Scone Airport

IDN60801

Issued at 2:05 pm EST Thursday 24 July 2014 (issued every 30 minutes, with the page automatically refreshed every 10 minutes)

About weather observations | Map of weather stations | Latest weather observations for NSW | Other Formats
Station Details ID: 061363 Name: SCONE AIRPORT AWS Lat: -32.03 Lon: 150.83 Height: 221.4 m
Data from the previous 72 hours. | See also: Recent months at Scone Airport
Date/Time
EST
Temp
°C
App
Temp
°C
Dew
Point
Rel
Hum
%
Delta-T
°C
Wind Press
QNH
hPa
Press
MSL
hPa
Rain
since 9 am
mm
Dir
 
Spd
km/h
Gust
km/h
Spd
kts
Gust
kts
24/02:00pm 15.3 14.7 7.3 59 4.0 ENE 0 0 0 0 1019.7 - 0.0
24/01:30pm 15.1 14.7 8.3 64 3.5 NE 0 0 0 0 1020.0 - 0.0
24/01:00pm 15.1 14.6 7.9 62 3.6 CALM 0 0 0 0 1020.3 - 0.0
24/12:30pm 15.1 13.5 8.1 63 3.6 NE 6 7 3 4 1020.8 - 0.0
24/12:00pm 14.8 14.0 8.3 65 3.3 NE 2 6 1 3 1021.2 1021.6 0.0
24/11:30am 13.3 12.7 9.0 75 2.2 WSW 2 6 1 3 1021.8 - 0.0
24/11:00am 11.6 11.2 9.7 88 1.0 E 2 9 1 5 1022.4 - 0.0
24/10:30am 9.8 9.8 9.7 99 0.1 CALM 0 0 0 0 1022.7 - 0.0
24/10:00am 8.4 7.6 8.3 99 0.0 E 2 6 1 3 1022.9 - 0.0
24/09:30am 7.4 6.4 7.3 99 0.0 SE 2 6 1 3 1022.9 - 0.0
24/09:00am 6.4 5.6 6.3 99 0.0 CALM 0 0 0 0 1022.4 1022.7 0.2
24/08:30am 5.7 4.7 5.6 99 0.0 CALM 0 0 0 0 1022.3 - 0.2
24/08:00am 4.6 3.4 4.5 99 0.0 CALM 0 0 0 0 1021.8 - 0.2
24/07:30am 4.0 2.3 3.9 99 0.0 W 2 6 1 3 1021.7 - 0.2
24/07:00am 4.1 2.8 4.0 99 0.0 CALM 0 0 0 0 1021.0 - 0.2
24/06:30am 4.0 2.3 3.9 99 0.0 NW 2 7 1 4 1020.6 - 0.2
24/06:00am 4.0 2.7 3.9 99 0.0 ENE 0 0 0 0 1020.6 1020.9 0.2
24/05:30am 3.7 2.3 3.6 99 0.0 CALM 0 0 0 0 1020.4 - 0.0
24/05:00am 2.9 1.4 2.8 99 0.0 CALM 0 0 0 0 1020.3 - 0.0
24/04:30am 2.6 1.0 2.5 99 0.0 CALM 0 0 0 0 1020.2 - 0.0
24/04:00am 3.2 1.7 3.1 99 0.0 CALM 0 0 0 0 1020.2 - 0.0
24/03:30am 3.5 2.1 3.4 99 0.0 CALM 0 0 0 0 1020.2 - 0.0
24/03:00am 3.2 1.7 3.1 99 0.0 CALM 0 0 0 0 1020.4 1020.7 0.0
24/02:30am 3.6 2.2 3.5 99 0.0 CALM 0 0 0 0 1020.5 - 0.0
24/02:00am 4.0 2.7 3.9 99 0.0 CALM 0 0 0 0 1020.9 - 0.0
24/01:30am 4.5 3.3 4.4 99 0.0 CALM 0 0 0 0 1020.9 - 0.0
24/01:00am 4.3 3.0 4.2 99 0.0 CALM 0 0 0 0 1021.2 - 0.0
24/12:30am 4.8 2.5 4.7 99 0.0 WNW 6 11 3 6 1021.2 - 0.0
24/12:00am 4.8 3.2 4.4 97 0.2 W 2 9 1 5 1021.4 1021.8 0.0
 
Date/Time
EST
Temp
°C
App
Temp
°C
Dew
Point
Rel
Hum
%
Delta-T
°C
Wind Press
QNH
hPa
Press
MSL
hPa
Rain
since 9 am
mm
Dir
 
Spd
km/h
Gust
km/h
Spd
kts
Gust
kts
23/11:30pm 5.9 4.8 5.3 96 0.3 CALM 0 0 0 0 1021.4 - 0.0
23/11:00pm 6.3 5.4 5.9 97 0.2 CALM 0 0 0 0 1022.0 - 0.0
23/10:30pm 6.1 5.1 5.7 97 0.2 CALM 0 0 0 0 1022.0 - 0.0
23/10:00pm 6.6 5.6 5.6 93 0.4 CALM 0 0 0 0 1021.9 - 0.0
23/09:30pm 7.2 6.2 5.5 89 0.8 CALM 0 0 0 0 1022.0 - 0.0
23/09:00pm 8.3 7.1 6.6 89 0.8 W 2 6 1 3 1021.9 1022.2 0.0
23/08:30pm 7.9 7.0 5.9 87 0.9 CALM 0 0 0 0 1022.1 - 0.0
23/08:00pm 8.5 7.7 6.3 86 1.0 CALM 0 0 0 0 1021.9 - 0.0
23/07:30pm 9.4 8.5 6.1 80 1.5 CALM 0 0 0 0 1021.6 - 0.0
23/07:00pm 11.4 9.2 6.3 71 2.4 SSW 7 9 4 5 1021.3 - 0.0
23/06:30pm 12.5 9.8 7.2 70 2.6 S 11 11 6 6 1021.2 - 0.0
23/06:00pm 12.8 10.8 7.3 69 2.7 SSW 7 9 4 5 1020.9 1021.2 0.0
23/05:30pm 13.3 10.3 7.5 68 2.9 SSE 13 17 7 9 1020.8 - 0.0
23/05:00pm 13.9 10.8 7.4 65 3.2 S 13 15 7 8 1020.8 - 0.0
23/04:30pm 16.0 13.3 5.6 50 5.0 S 9 11 5 6 1020.7 - 0.0
23/04:00pm 16.7 14.0 5.6 48 5.4 S 9 13 5 7 1020.3 - 0.0
23/03:30pm 16.6 14.5 5.6 48 5.4 SE 6 11 3 6 1020.3 - 0.0
23/03:00pm 16.9 14.9 6.1 49 5.3 S 6 9 3 5 1020.4 1020.7 0.0
23/02:30pm 16.1 13.4 5.7 50 5.1 S 9 15 5 8 1020.5 - 0.0
23/02:00pm 15.7 13.0 5.6 51 4.9 S 9 11 5 6 1021.0 - 0.0
23/01:30pm 15.8 12.8 4.2 46 5.5 SE 9 13 5 7 1021.2 - 0.0
23/01:00pm 15.5 13.1 6.8 56 4.3 SSE 9 20 5 11 1022.0 - 0.0
23/12:30pm 14.7 12.3 7.0 60 3.8 S 9 13 5 7 1022.8 - 0.0
23/12:00pm 13.0 11.0 7.2 68 2.8 SSE 7 13 4 7 1023.5 1023.8 0.0
23/11:30am 11.8 10.0 8.1 78 1.8 S 7 13 4 7 1024.3 - 0.0
23/11:00am 9.2 7.9 9.1 99 0.0 ESE 6 9 3 5 1025.1 - 0.0
23/10:30am 8.2 7.0 8.1 99 0.0 SSE 4 7 2 4 1025.6 - 0.0
23/10:00am 7.4 6.4 7.3 99 0.0 WSW 2 7 1 4 1025.7 - 0.0
23/09:30am 6.6 5.8 6.5 99 0.0 CALM 0 6 0 3 1025.7 - 0.0
23/09:00am 6.3 5.4 6.2 99 0.0 CALM 0 6 0 3 1025.4 1025.8 0.0
23/08:30am 5.6 3.4 5.5 99 0.0 NE 6 9 3 5 1025.3 - 0.0
23/08:00am 4.9 2.6 4.8 99 0.0 NE 6 7 3 4 1024.9 - 0.0
23/07:30am 4.8 3.6 4.7 99 0.0 CALM 0 0 0 0 1024.6 - 0.0
23/07:00am 5.3 3.5 5.2 99 0.0 NE 4 6 2 3 1024.3 - 0.0
23/06:30am 4.4 3.1 4.3 99 0.0 CALM 0 0 0 0 1024.0 - 0.0
23/06:00am 3.5 1.7 3.4 99 0.0 ENE 2 6 1 3 1023.6 1023.9 0.0
23/05:30am 3.1 0.8 3.0 99 0.0 ENE 4 6 2 3 1023.3 - 0.0
23/05:00am 2.9 1.0 2.8 99 0.0 N 2 9 1 5 1023.3 - 0.0
23/04:30am 2.6 1.0 2.5 99 0.0 CALM 0 0 0 0 1023.0 - 0.0
23/04:00am 0.8 -2.2 0.7 99 0.0 N 6 7 3 4 1022.8 - 0.0
23/03:30am 0.3 -1.7 0.2 99 0.0 CALM 0 0 0 0 1023.0 - 0.0
23/03:00am 0.8 -1.1 0.7 99 0.0 CALM 0 0 0 0 1023.1 1023.4 0.0
23/02:30am 1.2 -0.6 1.1 99 0.0 CALM 0 0 0 0 1023.2 - 0.0
23/02:00am 1.3 -0.5 1.2 99 0.0 CALM 0 0 0 0 1023.0 - 0.0
23/01:30am 2.2 0.5 2.1 99 0.0 CALM 0 0 0 0 1023.3 - 0.0
23/01:00am 1.6 -0.2 1.5 99 0.0 CALM 0 0 0 0 1023.2 - 0.0
23/12:30am 2.1 0.4 2.0 99 0.0 CALM 0 0 0 0 1023.4 - 0.0
23/12:00am 3.2 1.7 3.1 99 0.0 CALM 0 0 0 0 1023.3 1023.6 0.0
 
Date/Time
EST
Temp
°C
App
Temp
°C
Dew
Point
Rel
Hum
%
Delta-T
°C
Wind Press
QNH
hPa
Press
MSL
hPa
Rain
since 9 am
mm
Dir
 
Spd
km/h
Gust
km/h
Spd
kts
Gust
kts
22/11:30pm 3.0 1.5 2.9 99 0.0 CALM 0 0 0 0 1023.3 - 0.0
22/11:00pm 3.2 1.7 2.9 98 0.1 CALM 0 0 0 0 1023.4 - 0.0
22/10:30pm 4.3 3.0 4.0 98 0.1 CALM 0 0 0 0 1023.3 - 0.0
22/10:00pm 4.3 2.9 3.7 96 0.3 CALM 0 0 0 0 1023.1 - 0.0
22/09:30pm 4.7 2.2 4.0 95 0.3 W 6 9 3 5 1023.1 - 0.0
22/09:00pm 5.2 3.5 4.2 93 0.4 NW 2 7 1 4 1023.1 1023.4 0.0
22/08:30pm 6.1 3.8 4.9 92 0.5 WNW 6 7 3 4 1022.9 - 0.0
22/08:00pm 6.2 4.9 3.9 85 1.0 CALM 0 6 0 3 1022.9 - 0.0
22/07:30pm 7.7 5.4 5.0 83 1.2 SW 6 7 3 4 1022.9 - 0.0
22/07:00pm 7.2 4.4 2.9 74 1.8 SW 7 9 4 5 1022.6 - 0.0
22/06:30pm 11.1 10.1 5.8 70 2.5 CALM 0 0 0 0 1022.3 - 0.0
22/06:00pm 9.8 8.1 4.2 68 2.5 S 2 9 1 5 1022.1 1022.4 0.0
22/05:30pm 12.3 8.7 5.0 61 3.4 S 13 13 7 7 1021.8 - 0.0
22/05:00pm 13.8 10.3 5.4 57 4.0 S 13 17 7 9 1021.3 - 0.0
22/04:30pm 15.7 12.3 5.9 52 4.8 S 13 17 7 9 1021.1 - 0.0
22/04:00pm 16.8 13.0 6.0 49 5.3 SSE 15 20 8 11 1021.1 - 0.0
22/03:30pm 16.9 13.1 5.8 48 5.4 S 15 20 8 11 1020.9 - 0.0
22/03:00pm 17.5 13.8 6.4 48 5.5 SSE 15 22 8 12 1020.8 1021.1 0.0
22/02:30pm 17.5 13.8 6.4 48 5.5 S 15 24 8 13 1020.8 - 0.0
22/02:00pm 16.9 14.5 7.0 52 5.0 S 9 13 5 7 1020.8 - 0.0
22/01:30pm 16.3 14.6 8.3 59 4.1 SW 7 13 4 7 1021.2 - 0.0
22/01:00pm 15.9 14.4 9.3 65 3.4 W 7 13 4 7 1021.7 - 0.0
22/12:30pm 15.0 13.4 8.7 66 3.2 NW 7 15 4 8 1022.0 - 0.0
22/12:00pm 14.7 14.2 9.5 71 2.7 SE 2 7 1 4 1022.7 1023.0 0.0
22/11:30am 13.6 12.1 9.1 74 2.3 S 7 11 4 6 1023.2 - 0.0
22/11:00am 13.2 12.3 9.3 77 2.0 SSE 4 9 2 5 1023.6 - 0.0
22/10:30am 12.5 11.8 10.0 85 1.3 SSW 4 7 2 4 1023.9 - 0.0
22/10:00am 11.8 10.5 9.9 88 1.0 S 7 9 4 5 1024.0 - 0.0
22/09:30am 11.4 9.3 9.8 90 0.8 S 11 15 6 8 1024.1 - 0.0
22/09:00am 11.1 9.4 9.9 92 0.6 SSE 9 11 5 6 1024.1 1024.4 0.0
22/08:30am 10.9 10.9 9.7 92 0.6 CALM 0 0 0 0 1024.0 - 0.0
22/08:00am 10.6 10.6 9.8 95 0.4 CALM 0 0 0 0 1023.7 - 0.0
22/07:30am 10.1 10.0 9.3 95 0.4 CALM 0 0 0 0 1023.4 - 0.0
22/07:00am 10.0 9.8 9.2 95 0.4 CALM 0 0 0 0 1023.3 - 0.0
22/06:30am 9.5 9.1 8.4 93 0.5 CALM 0 0 0 0 1023.2 - 0.0
22/06:00am 9.4 9.1 8.6 95 0.4 CALM 0 0 0 0 1022.8 1023.1 0.0
22/05:30am 9.2 8.8 8.1 93 0.5 CALM 0 0 0 0 1022.4 - 0.0
22/05:00am 9.2 8.7 8.0 92 0.6 CALM 0 0 0 0 1022.2 - 0.0
22/04:30am 9.0 8.5 7.9 93 0.5 CALM 0 0 0 0 1022.2 - 0.0
22/04:00am 8.7 6.9 7.8 94 0.4 W 7 9 4 5 1022.3 - 0.0
22/03:30am 8.8 8.3 7.9 94 0.4 CALM 0 0 0 0 1022.2 - 0.0
22/03:00am 8.6 8.1 7.7 94 0.4 CALM 0 0 0 0 1022.2 1022.5 0.0
22/02:30am 8.6 8.0 7.4 92 0.6 CALM 0 0 0 0 1022.2 - 0.0
22/02:00am 8.8 8.2 7.4 91 0.7 CALM 0 0 0 0 1022.4 - 0.0
22/01:30am 9.0 8.4 7.6 91 0.7 CALM 0 0 0 0 1022.5 - 0.0
22/01:00am 9.0 8.1 7.8 92 0.6 NE 2 7 1 4 1022.6 - 0.0
22/12:30am 9.0 8.4 7.3 89 0.8 CALM 0 0 0 0 1022.6 - 0.0
22/12:00am 9.4 8.8 7.5 88 0.9 CALM 0 0 0 0 1022.7 1023.0 0.0
 
Date/Time
EST
Temp
°C
App
Temp
°C
Dew
Point
Rel
Hum
%
Delta-T
°C
Wind Press
QNH
hPa
Press
MSL
hPa
Rain
since 9 am
mm
Dir
 
Spd
km/h
Gust
km/h
Spd
kts
Gust
kts
21/11:30pm 10.2 9.7 7.8 85 1.2 CALM 0 0 0 0 1022.7 - 0.0
21/11:00pm 10.9 9.4 8.5 85 1.2 ENE 6 7 3 4 1022.8 - 0.0
21/10:30pm 11.5 9.2 8.9 84 1.3 S 11 15 6 8 1022.9 - 0.0
21/10:00pm 11.9 9.6 8.9 82 1.5 S 11 13 6 7 1023.0 - 0.0
21/09:30pm 12.0 9.3 8.8 81 1.6 S 13 15 7 8 1023.0 - 0.0
21/09:00pm 11.8 9.0 8.6 81 1.6 S 13 15 7 8 1022.9 1023.2 0.0
21/08:30pm 11.7 8.9 8.6 81 1.6 S 13 15 7 8 1023.0 - 0.0
21/08:00pm 11.8 8.9 8.3 79 1.7 S 13 15 7 8 1022.9 - 0.0
21/07:30pm 12.2 8.6 8.3 77 1.9 S 17 20 9 11 1022.7 - 0.0
21/07:00pm 12.3 8.7 8.2 76 2.0 S 17 19 9 10 1022.5 - 0.0
21/06:30pm 12.8 9.8 7.7 71 2.5 S 13 17 7 9 1022.3 - 0.0
21/06:00pm 12.9 9.7 6.7 66 3.0 S 13 15 7 8 1022.0 1022.3 0.0
21/05:30pm 13.4 10.1 6.5 63 3.3 S 13 15 7 8 1021.9 - 0.0
21/05:00pm 14.8 11.1 6.4 57 4.1 S 15 19 8 10 1021.8 - 0.0
21/04:30pm 15.5 11.4 6.0 53 4.6 S 17 24 9 13 1021.6 - 0.0
21/04:00pm 15.9 11.9 6.6 54 4.6 S 17 22 9 12 1021.6 - 0.0
21/03:30pm 16.3 11.7 6.4 52 4.9 S 20 24 11 13 1021.3 - 0.0
21/03:00pm 16.5 13.3 6.9 53 4.8 S 13 17 7 9 1021.4 1021.8 0.0
21/02:30pm 17.1 13.8 6.6 50 5.2 SSE 13 20 7 11 1021.4 - 0.0

Other Formats:

Comma delimited format used in spreadsheet applications
http://www.bom.gov.au/fwo/IDN60801/IDN60801.95758.axf

JavaScript Object Notation format (JSON) in row-major order
http://www.bom.gov.au/fwo/IDN60801/IDN60801.95758.json